Pagrindinis puslapis
METAR-TAF:

METAR-TAF

Oro uostai :

Noorvik, Aliaska, Jungtinės Amerikos Valstijos

platuma: 66-49-03N, ilguma: 161-01-20W, Aukštis: 17 m

Dabartinis oras

Ataskaita buvo paskelbta 15 minutes, ne 18:56 UTC
Vėjas 19 kt iš Rytų/Šiaurės Rytų
Temperatūra -23°C
Drėgmė 70%
Slėgis 1015 hPa
Matomumas: 11.3 km
Giedras dangus

METAR: PFNO 161856Z AUTO 07019KT 7SM CLR M23/M27 A2997 RMK AO2 SLP239 T12281267 FZRANO

Laikas: 10:11 (19:11 UTC)


TAF: trūkstamas

Orai ataskaitas ir orų prognozės (METAR, TAF).

turimą stotys yra geltonos ir raudonos taškus žemėlapyje.

Perkelti pele per norėdami pamatyti stoties vardą.

Tada spustelėkite, norėdami matyti oro stebėjimo ir prognozės.

Norėdami pakeisti žemėlapį: spustelėkite ant žalios mygtukų su juodo kryžiaus žemyn,; žalią mygtuką su brūkšneliu, jei norite nutolinti; arba žalių rodyklių gretimoms žemėlapius.


METAR-TAF: